Time;durP1;ratioP1;P1;durP2;ratioP2;P2;SDS_P1;SDS_P2;PMS_P1;PMS_P2;Temp;Humidity;BMP_temperature;BMP_pressure;BME280_temperature;BME280_humidity;BME280_pressure;Samples;Min_cycle;Max_cycle;Signal;HPM_P1;HPM_P2
2023/07/06 00:01:03;;;;;;;2.15;1.90;;;;;;;;;;4724582;30;20059;-87
2023/07/06 00:03:31;;;;;;;1.98;1.70;;;;;;;;;;4727170;30;20052;-86
2023/07/06 00:06:06;;;;;;;2.88;1.90;;;;;;;;;;4726474;30;20060;-87
2023/07/06 00:08:42;;;;;;;4.50;2.20;;;;;;;;;;4727267;30;20067;-87
2023/07/06 00:11:10;;;;;;;1.73;1.63;;;;;;;;;;4725856;30;20135;-86
2023/07/06 00:13:45;;;;;;;2.25;2.05;;;;;;;;;;4725641;30;20061;-87
2023/07/06 00:16:16;;;;;;;2.55;2.35;;;;;;;;;;4723013;30;20064;-87
2023/07/06 00:18:44;;;;;;;2.75;2.05;;;;;;;;;;4726251;30;20049;-86
2023/07/06 00:21:11;;;;;;;1.52;1.42;;;;;;;;;;4728312;30;20717;-87
2023/07/06 00:23:44;;;;;;;1.60;1.48;;;;;;;;;;4728477;30;20510;-86
2023/07/06 00:26:12;;;;;;;1.70;1.60;;;;;;;;;;4724227;30;20428;-86
2023/07/06 00:28:40;;;;;;;1.80;1.55;;;;;;;;;;4710746;30;20498;-87
2023/07/06 00:31:10;;;;;;;2.10;1.50;;;;;;;;;;4727134;30;20055;-87
2023/07/06 00:33:38;;;;;;;1.50;1.40;;;;;;;;;;4729759;30;20049;-87
2023/07/06 00:36:07;;;;;;;3.65;1.60;;;;;;;;;;4730361;30;20063;-86
2023/07/06 00:38:36;;;;;;;1.63;1.52;;;;;;;;;;4728167;30;20076;-87
2023/07/06 00:41:04;;;;;;;1.60;1.50;;;;;;;;;;4723991;30;20051;-87
2023/07/06 00:43:51;;;;;;;1.70;1.60;;;;;;;;;;4729451;30;20420;-86
2023/07/06 00:46:39;;;;;;;1.77;1.50;;;;;;;;;;4730717;30;20087;-86
2023/07/06 00:49:12;;;;;;;1.75;1.60;;;;;;;;;;4744122;30;20676;-86
2023/07/06 00:51:41;;;;;;;1.55;1.45;;;;;;;;;;4732934;30;20474;-86
2023/07/06 00:54:10;;;;;;;1.48;1.38;;;;;;;;;;4727704;30;20052;-86
2023/07/06 00:56:39;;;;;;;1.83;1.45;;;;;;;;;;4723060;30;20053;-87
2023/07/06 00:59:07;;;;;;;2.03;1.48;;;;;;;;;;4730373;30;20114;-86
2023/07/06 01:01:36;;;;;;;3.00;1.55;;;;;;;;;;4730953;30;20057;-86
2023/07/06 01:04:05;;;;;;;1.65;1.55;;;;;;;;;;4730003;30;20060;-86
2023/07/06 01:06:34;;;;;;;1.63;1.45;;;;;;;;;;4730131;30;20056;-86
2023/07/06 01:09:05;;;;;;;2.50;1.50;;;;;;;;;;4727060;30;20185;-86
2023/07/06 01:11:36;;;;;;;3.30;1.40;;;;;;;;;;4744067;30;20052;-86
2023/07/06 01:14:03;;;;;;;1.70;1.40;;;;;;;;;;4728682;30;20625;-86
2023/07/06 01:16:31;;;;;;;2.13;1.20;;;;;;;;;;4730334;30;20073;-87
2023/07/06 01:19:11;;;;;;;1.48;1.38;;;;;;;;;;4726531;30;20076;-87
2023/07/06 01:21:39;;;;;;;1.48;1.38;;;;;;;;;;4729166;30;20055;-86
2023/07/06 01:24:17;;;;;;;1.33;1.23;;;;;;;;;;4728541;30;20396;-87
2023/07/06 01:26:56;;;;;;;1.55;1.40;;;;;;;;;;4741069;30;20063;-86
2023/07/06 01:29:24;;;;;;;1.52;1.38;;;;;;;;;;4725266;30;20646;-86
2023/07/06 01:31:57;;;;;;;1.90;1.40;;;;;;;;;;4728553;30;21183;-85
2023/07/06 01:34:24;;;;;;;1.50;1.40;;;;;;;;;;4729490;30;20053;-86
2023/07/06 01:37:07;;;;;;;1.60;1.50;;;;;;;;;;4728566;30;20072;-86
2023/07/06 01:39:34;;;;;;;1.30;1.30;;;;;;;;;;4728776;30;20106;-85
2023/07/06 01:42:08;;;;;;;1.52;1.40;;;;;;;;;;4729303;30;20048;-86
2023/07/06 01:44:36;;;;;;;1.17;1.17;;;;;;;;;;4727048;30;20057;-86
2023/07/06 01:47:04;;;;;;;1.52;1.48;;;;;;;;;;4728340;30;20136;-86
2023/07/06 01:49:35;;;;;;;1.20;1.02;;;;;;;;;;4729410;30;20596;-86
2023/07/06 01:52:25;;;;;;;1.70;1.30;;;;;;;;;;4708045;30;20115;-87
2023/07/06 01:55:00;;;;;;;1.40;1.30;;;;;;;;;;4726593;30;20091;-88
2023/07/06 01:57:31;;;;;;;1.40;1.30;;;;;;;;;;4726725;30;20044;-86
2023/07/06 02:00:15;;;;;;;1.20;1.10;;;;;;;;;;4738562;30;20108;-85
2023/07/06 02:02:48;;;;;;;1.33;1.20;;;;;;;;;;4727388;30;20122;-85
2023/07/06 02:05:16;;;;;;;3.78;1.30;;;;;;;;;;4722550;30;20064;-86
2023/07/06 02:07:44;;;;;;;3.65;1.33;;;;;;;;;;4725951;30;20594;-86
2023/07/06 02:10:16;;;;;;;1.17;1.10;;;;;;;;;;4728898;30;20076;-87
2023/07/06 02:12:47;;;;;;;1.45;1.35;;;;;;;;;;4724871;30;20147;-86
2023/07/06 02:15:21;;;;;;;1.20;1.17;;;;;;;;;;4727329;30;20044;-86
2023/07/06 02:17:50;;;;;;;1.30;1.20;;;;;;;;;;4726636;30;20454;-87
2023/07/06 02:20:19;;;;;;;1.20;1.13;;;;;;;;;;4721968;30;20508;-87
2023/07/06 02:22:47;;;;;;;2.25;1.42;;;;;;;;;;4729379;30;20087;-86
2023/07/06 02:25:14;;;;;;;1.75;1.65;;;;;;;;;;4737483;30;20048;-86
2023/07/06 02:27:42;;;;;;;5.95;2.00;;;;;;;;;;4728967;30;20064;-86
2023/07/06 02:30:10;;;;;;;1.70;1.60;;;;;;;;;;4727838;30;20052;-87
2023/07/06 02:32:39;;;;;;;1.65;1.55;;;;;;;;;;4723718;30;20053;-86
2023/07/06 02:35:09;;;;;;;1.70;1.60;;;;;;;;;;4722708;30;20254;-86
2023/07/06 02:37:38;;;;;;;2.25;1.38;;;;;;;;;;4727799;30;20063;-86
2023/07/06 02:40:07;;;;;;;1.83;1.70;;;;;;;;;;4726172;30;20485;-87
2023/07/06 02:42:35;;;;;;;1.83;1.52;;;;;;;;;;4730467;30;20120;-85
2023/07/06 02:45:05;;;;;;;1.65;1.27;;;;;;;;;;4721791;30;20056;-85
2023/07/06 02:47:33;;;;;;;1.65;1.35;;;;;;;;;;4728997;30;20078;-86
2023/07/06 02:50:00;;;;;;;1.20;1.20;;;;;;;;;;4726289;30;20055;-86
2023/07/06 02:52:28;;;;;;;2.22;1.30;;;;;;;;;;4731524;30;20045;-86
2023/07/06 02:54:55;;;;;;;2.22;1.30;;;;;;;;;;4740972;30;20076;-86
2023/07/06 02:57:23;;;;;;;1.80;1.30;;;;;;;;;;4746761;30;20048;-87
2023/07/06 02:59:50;;;;;;;1.67;1.63;;;;;;;;;;4745664;30;20056;-87
2023/07/06 03:02:19;;;;;;;1.30;1.30;;;;;;;;;;4738202;30;20695;-86
2023/07/06 03:04:46;;;;;;;1.50;1.40;;;;;;;;;;4724911;30;20571;-86
2023/07/06 03:07:14;;;;;;;1.40;1.40;;;;;;;;;;4721415;30;20064;-86
2023/07/06 03:09:42;;;;;;;1.75;1.65;;;;;;;;;;4727007;30;20137;-85
2023/07/06 03:12:10;;;;;;;1.75;1.65;;;;;;;;;;4728937;30;20056;-86
2023/07/06 03:14:37;;;;;;;1.90;1.70;;;;;;;;;;4726043;30;20102;-87
2023/07/06 03:17:05;;;;;;;4.00;1.85;;;;;;;;;;4726609;30;20092;-87
2023/07/06 03:19:34;;;;;;;1.80;1.70;;;;;;;;;;4728839;30;20053;-86
2023/07/06 03:22:01;;;;;;;1.98;1.50;;;;;;;;;;4725799;30;20064;-86
2023/07/06 03:24:29;;;;;;;1.73;1.63;;;;;;;;;;4726439;30;20091;-87
2023/07/06 03:27:01;;;;;;;1.70;1.60;;;;;;;;;;4728798;30;20062;-86
2023/07/06 03:29:30;;;;;;;1.80;1.70;;;;;;;;;;4730854;30;20045;-86
2023/07/06 03:31:58;;;;;;;1.90;1.80;;;;;;;;;;4731511;30;20524;-87
2023/07/06 03:34:27;;;;;;;1.90;1.80;;;;;;;;;;4728822;30;20083;-87
2023/07/06 03:36:54;;;;;;;2.25;1.70;;;;;;;;;;4727151;30;20055;-87
2023/07/06 03:39:22;;;;;;;1.60;1.50;;;;;;;;;;4729465;30;20591;-87
2023/07/06 03:41:49;;;;;;;1.80;1.60;;;;;;;;;;4730116;30;20809;-90
2023/07/06 03:44:21;;;;;;;1.42;1.33;;;;;;;;;;4727341;30;20053;-89
2023/07/06 03:46:49;;;;;;;1.50;1.40;;;;;;;;;;4728639;30;20107;-89
2023/07/06 03:49:21;;;;;;;1.65;1.55;;;;;;;;;;4744777;30;20115;-88
2023/07/06 03:51:56;;;;;;;2.67;1.52;;;;;;;;;;4735887;30;20060;-89
2023/07/06 03:54:50;;;;;;;2.00;1.90;;;;;;;;;;4729978;30;20524;-87
2023/07/06 04:00:56;;;;;;;1.38;1.38;;;;;;;;;;4725696;30;20052;-87
2023/07/06 04:03:23;;;;;;;1.77;1.67;;;;;;;;;;4728652;30;20049;-87
2023/07/06 04:05:51;;;;;;;1.50;1.40;;;;;;;;;;4728747;30;20053;-87
2023/07/06 04:08:19;;;;;;;2.83;1.50;;;;;;;;;;4728465;30;20064;-87
2023/07/06 04:10:47;;;;;;;1.77;1.50;;;;;;;;;;4724521;30;20634;-87
2023/07/06 04:13:14;;;;;;;4.07;1.60;;;;;;;;;;4728665;30;20060;-87
2023/07/06 04:15:52;;;;;;;1.55;1.45;;;;;;;;;;4722717;30;20135;-87
2023/07/06 04:18:20;;;;;;;1.77;1.63;;;;;;;;;;4727053;30;20139;-87
2023/07/06 04:20:53;;;;;;;1.77;1.60;;;;;;;;;;4728513;30;20061;-88
2023/07/06 04:23:20;;;;;;;3.75;1.52;;;;;;;;;;4728735;30;20053;-88
2023/07/06 04:25:48;;;;;;;1.50;1.40;;;;;;;;;;4726392;30;20056;-87
2023/07/06 04:28:16;;;;;;;1.50;1.40;;;;;;;;;;4740032;30;20056;-89
2023/07/06 04:30:45;;;;;;;1.75;1.65;;;;;;;;;;4729199;30;21308;-87
2023/07/06 04:33:17;;;;;;;3.95;1.73;;;;;;;;;;4730008;30;20071;-87
2023/07/06 04:35:44;;;;;;;2.08;1.63;;;;;;;;;;4726972;30;20076;-87
2023/07/06 04:38:12;;;;;;;1.88;1.75;;;;;;;;;;4744708;30;20106;-88
2023/07/06 04:40:41;;;;;;;1.70;1.60;;;;;;;;;;4731456;30;20136;-87
2023/07/06 04:43:09;;;;;;;1.80;1.70;;;;;;;;;;4721836;30;20057;-87
2023/07/06 04:45:37;;;;;;;2.42;1.58;;;;;;;;;;4727718;30;20531;-87
2023/07/06 04:48:05;;;;;;;2.15;2.05;;;;;;;;;;4728667;30;20071;-88
2023/07/06 04:50:37;;;;;;;1.73;1.63;;;;;;;;;;4731844;30;20060;-87
2023/07/06 04:53:07;;;;;;;1.90;1.70;;;;;;;;;;4725663;30;20511;-87
2023/07/06 04:55:36;;;;;;;1.83;1.73;;;;;;;;;;4727586;30;20083;-87
2023/07/06 04:58:05;;;;;;;1.90;1.80;;;;;;;;;;4730363;30;20055;-87
2023/07/06 05:00:37;;;;;;;2.15;1.92;;;;;;;;;;4729035;30;20712;-87
2023/07/06 05:03:07;;;;;;;1.83;1.70;;;;;;;;;;4726478;30;20412;-87
2023/07/06 05:05:38;;;;;;;2.00;1.90;;;;;;;;;;4728872;30;20155;-87
2023/07/06 05:08:10;;;;;;;1.98;1.88;;;;;;;;;;4723309;30;20143;-88
2023/07/06 05:10:38;;;;;;;2.10;2.00;;;;;;;;;;4724278;30;20059;-87
2023/07/06 05:13:06;;;;;;;2.10;1.90;;;;;;;;;;4721607;30;20056;-87
2023/07/06 05:15:37;;;;;;;2.00;1.90;;;;;;;;;;4722791;30;20063;-88
2023/07/06 05:18:06;;;;;;;2.30;2.10;;;;;;;;;;4724269;30;20049;-88
2023/07/06 05:20:33;;;;;;;2.60;2.40;;;;;;;;;;4727068;30;20073;-87
2023/07/06 05:23:03;;;;;;;2.08;1.98;;;;;;;;;;4743845;30;20060;-88
2023/07/06 05:25:37;;;;;;;3.08;2.88;;;;;;;;;;4729424;30;20152;-89
2023/07/06 05:28:26;;;;;;;2.83;2.15;;;;;;;;;;4727036;30;20049;-87
2023/07/06 05:31:04;;;;;;;2.35;2.15;;;;;;;;;;4714402;30;20517;-88
2023/07/06 05:33:32;;;;;;;2.33;1.77;;;;;;;;;;4731024;30;20075;-87
2023/07/06 05:36:03;;;;;;;2.75;2.15;;;;;;;;;;4724496;30;20041;-88
2023/07/06 05:38:31;;;;;;;2.47;2.28;;;;;;;;;;4725610;30;20144;-89
2023/07/06 05:41:04;;;;;;;2.35;2.17;;;;;;;;;;4727618;30;20049;-88
2023/07/06 05:43:47;;;;;;;2.10;1.95;;;;;;;;;;4727878;30;20044;-88
2023/07/06 05:46:17;;;;;;;2.13;2.03;;;;;;;;;;4727537;30;20091;-87
2023/07/06 05:48:47;;;;;;;1.90;1.80;;;;;;;;;;4726466;30;20131;-87
2023/07/06 05:51:19;;;;;;;2.47;2.28;;;;;;;;;;4720523;30;20065;-86
2023/07/06 05:53:50;;;;;;;2.63;2.42;;;;;;;;;;4726727;30;20060;-87
2023/07/06 05:56:18;;;;;;;3.50;3.30;;;;;;;;;;4738791;30;20047;-86
2023/07/06 05:58:46;;;;;;;2.67;2.47;;;;;;;;;;4746599;30;20037;-86
2023/07/06 06:01:16;;;;;;;2.80;2.60;;;;;;;;;;4734823;30;20424;-88
2023/07/06 06:03:46;;;;;;;3.17;2.97;;;;;;;;;;4725474;30;20048;-86
2023/07/06 06:06:14;;;;;;;2.83;2.63;;;;;;;;;;4722849;30;20052;-87
2023/07/06 06:08:42;;;;;;;3.00;2.70;;;;;;;;;;4729027;30;20079;-87
2023/07/06 06:11:10;;;;;;;2.70;2.45;;;;;;;;;;4726672;30;20068;-86
2023/07/06 06:13:38;;;;;;;2.22;2.13;;;;;;;;;;4725031;30;20424;-87
2023/07/06 06:16:06;;;;;;;2.92;2.35;;;;;;;;;;4715112;30;20061;-86
2023/07/06 06:18:33;;;;;;;2.70;2.50;;;;;;;;;;4724735;30;20169;-85
2023/07/06 06:21:01;;;;;;;2.33;2.22;;;;;;;;;;4725773;30;20132;-84
2023/07/06 06:23:28;;;;;;;2.20;2.10;;;;;;;;;;4726476;30;20110;-84
2023/07/06 06:25:55;;;;;;;1.95;1.77;;;;;;;;;;4727935;30;20071;-85
2023/07/06 06:28:23;;;;;;;2.60;2.22;;;;;;;;;;4725541;30;20049;-85
2023/07/06 06:30:51;;;;;;;2.70;1.88;;;;;;;;;;4723174;30;20068;-84
2023/07/06 06:33:19;;;;;;;2.28;2.10;;;;;;;;;;4723790;30;20053;-84
2023/07/06 06:35:47;;;;;;;2.80;2.60;;;;;;;;;;4723733;30;20057;-84
2023/07/06 06:38:15;;;;;;;2.45;2.25;;;;;;;;;;4735255;30;20060;-86
2023/07/06 06:40:44;;;;;;;3.05;2.50;;;;;;;;;;4721003;30;20087;-87
2023/07/06 06:43:12;;;;;;;2.65;2.45;;;;;;;;;;4720105;30;20044;-86
2023/07/06 06:45:40;;;;;;;2.22;2.13;;;;;;;;;;4722143;30;20455;-86
2023/07/06 06:48:08;;;;;;;2.33;2.13;;;;;;;;;;4726513;30;20060;-86
2023/07/06 06:50:35;;;;;;;2.40;2.17;;;;;;;;;;4727171;30;20051;-86
2023/07/06 06:53:03;;;;;;;2.55;2.35;;;;;;;;;;4728722;30;20530;-87
2023/07/06 06:55:30;;;;;;;2.30;2.10;;;;;;;;;;4728617;30;20061;-86
2023/07/06 06:57:58;;;;;;;2.17;2.05;;;;;;;;;;4729113;30;20196;-86
2023/07/06 07:00:28;;;;;;;2.30;2.20;;;;;;;;;;4726193;30;20045;-86
2023/07/06 07:02:57;;;;;;;2.25;2.05;;;;;;;;;;4724199;30;20658;-87
2023/07/06 07:05:25;;;;;;;3.30;3.10;;;;;;;;;;4737439;30;20149;-86
2023/07/06 07:07:53;;;;;;;2.55;2.35;;;;;;;;;;4727419;30;20056;-87
2023/07/06 07:10:23;;;;;;;2.10;2.00;;;;;;;;;;4728712;30;20068;-86
2023/07/06 07:12:53;;;;;;;1.83;1.73;;;;;;;;;;4729222;30;20428;-86
2023/07/06 07:15:21;;;;;;;1.90;1.80;;;;;;;;;;4728846;30;20548;-86
2023/07/06 07:17:48;;;;;;;2.00;1.90;;;;;;;;;;4729586;30;20053;-86
2023/07/06 07:20:15;;;;;;;2.20;2.00;;;;;;;;;;4731838;30;20156;-86
2023/07/06 07:22:44;;;;;;;2.33;2.13;;;;;;;;;;4729969;30;20512;-86
2023/07/06 07:25:12;;;;;;;2.22;2.10;;;;;;;;;;4727343;30;20064;-86
2023/07/06 07:27:40;;;;;;;2.22;1.92;;;;;;;;;;4725299;30;20107;-86
2023/07/06 07:30:11;;;;;;;1.88;1.77;;;;;;;;;;4725535;30;20057;-86
2023/07/06 07:32:41;;;;;;;2.30;2.15;;;;;;;;;;4727794;30;20052;-85
2023/07/06 07:35:09;;;;;;;1.83;1.70;;;;;;;;;;4754500;30;20068;-85
2023/07/06 07:37:36;;;;;;;3.00;2.72;;;;;;;;;;4751165;30;20093;-85
2023/07/06 07:40:05;;;;;;;1.85;1.75;;;;;;;;;;4750450;30;20082;-84
2023/07/06 07:42:33;;;;;;;2.10;2.00;;;;;;;;;;4755642;30;20029;-84
2023/07/06 07:45:00;;;;;;;2.30;2.20;;;;;;;;;;4730337;30;20059;-86
2023/07/06 07:47:27;;;;;;;1.95;1.85;;;;;;;;;;4728071;30;20155;-86
2023/07/06 07:49:55;;;;;;;2.33;2.20;;;;;;;;;;4724542;30;20061;-86
2023/07/06 07:52:22;;;;;;;2.28;2.13;;;;;;;;;;4726971;30;20060;-85
2023/07/06 07:54:52;;;;;;;3.80;2.10;;;;;;;;;;4720519;30;20069;-83
2023/07/06 07:57:19;;;;;;;2.10;2.00;;;;;;;;;;4723512;30;20055;-85
2023/07/06 07:59:50;;;;;;;2.13;2.03;;;;;;;;;;4723779;30;20060;-85
2023/07/06 08:02:18;;;;;;;1.90;1.80;;;;;;;;;;4727235;30;20107;-85
2023/07/06 08:04:47;;;;;;;1.70;1.60;;;;;;;;;;4728096;30;20068;-85
2023/07/06 08:07:15;;;;;;;2.05;1.95;;;;;;;;;;4722113;30;20397;-84
2023/07/06 08:09:43;;;;;;;2.50;2.40;;;;;;;;;;4732701;30;20087;-84
2023/07/06 08:12:11;;;;;;;2.00;1.90;;;;;;;;;;4729480;30;20536;-85
2023/07/06 08:14:41;;;;;;;1.67;1.58;;;;;;;;;;4728278;30;20051;-84
2023/07/06 08:17:10;;;;;;;1.80;1.70;;;;;;;;;;4739186;30;20063;-85
2023/07/06 08:19:38;;;;;;;2.00;1.90;;;;;;;;;;4734660;30;20057;-85
2023/07/06 08:22:26;;;;;;;3.45;2.00;;;;;;;;;;4728531;30;20098;-84
2023/07/06 08:24:53;;;;;;;1.60;1.50;;;;;;;;;;4723745;30;20093;-84
2023/07/06 08:27:21;;;;;;;1.60;1.50;;;;;;;;;;4726862;30;20161;-85
2023/07/06 08:29:50;;;;;;;1.50;1.40;;;;;;;;;;4725134;30;20065;-85
2023/07/06 08:32:19;;;;;;;1.55;1.48;;;;;;;;;;4716595;30;20060;-84
2023/07/06 08:34:47;;;;;;;1.88;1.52;;;;;;;;;;4725198;30;20056;-85
2023/07/06 08:37:18;;;;;;;1.75;1.50;;;;;;;;;;4740969;30;20160;-84
2023/07/06 08:39:46;;;;;;;;;;;;;;;;;;4725022;30;20114;-86
2023/07/06 08:42:16;;;;;;;1.20;1.20;;;;;;;;;;4720969;30;19930;-85
2023/07/06 08:44:49;;;;;;;4.40;2.15;;;;;;;;;;4719054;30;20198;-85
2023/07/06 08:47:17;;;;;;;1.48;1.35;;;;;;;;;;4721546;30;20114;-83
2023/07/06 08:49:45;;;;;;;2.53;1.20;;;;;;;;;;4722898;30;20137;-83
2023/07/06 08:52:13;;;;;;;1.25;1.15;;;;;;;;;;4721142;30;20056;-83
2023/07/06 08:54:41;;;;;;;1.30;1.20;;;;;;;;;;4722600;30;20052;-83
2023/07/06 08:57:15;;;;;;;2.42;1.65;;;;;;;;;;4723500;30;20052;-85
2023/07/06 08:59:43;;;;;;;1.45;1.35;;;;;;;;;;4717083;30;20041;-84
2023/07/06 09:02:13;;;;;;;1.17;1.08;;;;;;;;;;4722742;30;20566;-87
2023/07/06 09:04:41;;;;;;;1.70;1.60;;;;;;;;;;4726345;30;20080;-85
2023/07/06 09:07:13;;;;;;;1.50;1.38;;;;;;;;;;4725822;30;20057;-82
2023/07/06 09:09:40;;;;;;;;;;;;;;;;;;4727731;30;20059;-83
2023/07/06 09:12:18;;;;;;;1.60;1.23;;;;;;;;;;4729672;30;19930;-83
2023/07/06 09:14:58;;;;;;;1.30;1.30;;;;;;;;;;4727760;30;20317;-87
2023/07/06 09:17:26;;;;;;;1.58;1.48;;;;;;;;;;4729388;30;20057;-83
2023/07/06 09:19:54;;;;;;;1.30;1.23;;;;;;;;;;4728295;30;20048;-79
2023/07/06 09:22:22;;;;;;;1.48;1.40;;;;;;;;;;4734699;30;20520;-82
2023/07/06 09:24:52;;;;;;;1.58;1.48;;;;;;;;;;4718332;30;20074;-83
2023/07/06 09:27:23;;;;;;;1.42;1.33;;;;;;;;;;4727749;30;20200;-82
2023/07/06 09:30:05;;;;;;;1.60;1.50;;;;;;;;;;4716662;30;20087;-87
2023/07/06 09:32:34;;;;;;;1.23;1.13;;;;;;;;;;4725668;30;20076;-83
2023/07/06 09:35:21;;;;;;;1.30;1.30;;;;;;;;;;4729626;30;20088;-83
2023/07/06 09:37:54;;;;;;;1.88;1.75;;;;;;;;;;4728597;30;20106;-86
2023/07/06 09:40:28;;;;;;;1.70;1.60;;;;;;;;;;4724005;30;20048;-83
2023/07/06 09:43:00;;;;;;;1.58;1.40;;;;;;;;;;4729253;30;20056;-82
2023/07/06 09:45:32;;;;;;;1.08;1.08;;;;;;;;;;4727706;30;20127;-83
2023/07/06 09:48:05;;;;;;;1.33;1.23;;;;;;;;;;4728742;30;20144;-88
2023/07/06 09:50:37;;;;;;;1.73;1.20;;;;;;;;;;4720740;30;20420;-85
2023/07/06 09:53:05;;;;;;;1.55;1.45;;;;;;;;;;4717130;30;20077;-83
2023/07/06 09:55:32;;;;;;;1.20;1.20;;;;;;;;;;4719078;30;20049;-83
2023/07/06 09:58:02;;;;;;;1.30;1.20;;;;;;;;;;4725626;30;20127;-83
2023/07/06 10:00:34;;;;;;;1.30;1.20;;;;;;;;;;4730294;30;20135;-82
2023/07/06 10:03:09;;;;;;;1.65;1.40;;;;;;;;;;4724293;30;20424;-83
2023/07/06 10:05:55;;;;;;;1.30;1.30;;;;;;;;;;4723407;30;20059;-82
2023/07/06 10:08:35;;;;;;;1.45;1.10;;;;;;;;;;4722853;30;20049;-84
2023/07/06 10:11:26;;;;;;;1.25;1.25;;;;;;;;;;4728887;30;20057;-81
2023/07/06 10:14:01;;;;;;;1.35;1.25;;;;;;;;;;4729225;30;20508;-82
2023/07/06 10:16:32;;;;;;;1.60;1.27;;;;;;;;;;4724922;30;20052;-82
2023/07/06 10:19:01;;;;;;;;;;;;;;;;;;4731445;30;20052;-83
2023/07/06 10:21:36;;;;;;;1.70;1.30;;;;;;;;;;4728211;30;19930;-82
2023/07/06 10:24:18;;;;;;;1.50;1.40;;;;;;;;;;4725211;30;20052;-82
2023/07/06 10:26:48;;;;;;;1.70;1.45;;;;;;;;;;4727671;30;20055;-83
2023/07/06 10:29:19;;;;;;;1.42;1.35;;;;;;;;;;4726173;30;20608;-82
2023/07/06 10:31:53;;;;;;;1.40;1.40;;;;;;;;;;4730513;30;20052;-82
2023/07/06 10:34:29;;;;;;;1.50;1.40;;;;;;;;;;4723731;30;20595;-82
2023/07/06 10:36:57;;;;;;;1.50;1.40;;;;;;;;;;4723606;30;20084;-81
2023/07/06 10:39:24;;;;;;;1.35;1.30;;;;;;;;;;4731011;30;20049;-82
2023/07/06 10:42:02;;;;;;;1.70;1.60;;;;;;;;;;4721652;30;20056;-83
2023/07/06 10:44:43;;;;;;;1.40;1.30;;;;;;;;;;4718886;30;20052;-82
2023/07/06 10:47:32;;;;;;;1.40;1.30;;;;;;;;;;4727826;30;20057;-81
2023/07/06 10:50:19;;;;;;;1.15;1.15;;;;;;;;;;4728056;30;20048;-83
2023/07/06 10:52:57;;;;;;;1.67;1.40;;;;;;;;;;4716036;30;20060;-80
2023/07/06 10:55:27;;;;;;;1.55;1.45;;;;;;;;;;4718266;30;20094;-80
2023/07/06 10:58:09;;;;;;;1.60;1.50;;;;;;;;;;4716955;30;20145;-82
2023/07/06 11:00:38;;;;;;;1.42;1.33;;;;;;;;;;4732156;30;20435;-82
2023/07/06 11:03:06;;;;;;;1.42;1.33;;;;;;;;;;4724061;30;20068;-83
2023/07/06 11:05:35;;;;;;;1.40;1.30;;;;;;;;;;4725931;30;20053;-83
2023/07/06 11:08:05;;;;;;;1.60;1.50;;;;;;;;;;4716574;30;20142;-83
2023/07/06 11:10:37;;;;;;;1.30;1.20;;;;;;;;;;4721784;30;20068;-82
2023/07/06 11:13:05;;;;;;;1.40;1.30;;;;;;;;;;4722193;30;20052;-83
2023/07/06 11:15:51;;;;;;;1.67;1.40;;;;;;;;;;4726105;30;20138;-83
2023/07/06 11:18:18;;;;;;;1.35;1.25;;;;;;;;;;4717854;30;20045;-82
2023/07/06 11:20:50;;;;;;;1.63;1.30;;;;;;;;;;4727016;30;20056;-82
2023/07/06 11:23:19;;;;;;;1.42;1.38;;;;;;;;;;4724444;30;20052;-84
2023/07/06 11:25:50;;;;;;;1.58;1.48;;;;;;;;;;4723693;30;20049;-83
2023/07/06 11:28:22;;;;;;;1.80;1.70;;;;;;;;;;4715541;30;20061;-83
2023/07/06 11:30:58;;;;;;;1.10;1.10;;;;;;;;;;4724869;30;20048;-84
2023/07/06 11:33:30;;;;;;;1.65;1.55;;;;;;;;;;4721133;30;20056;-82
2023/07/06 11:36:12;;;;;;;5.75;1.33;;;;;;;;;;4723225;30;20056;-82
2023/07/06 11:39:00;;;;;;;1.70;1.60;;;;;;;;;;4729842;30;20065;-80
2023/07/06 11:41:44;;;;;;;1.35;1.30;;;;;;;;;;4724498;30;20068;-81
2023/07/06 11:44:25;;;;;;;1.35;1.20;;;;;;;;;;4724666;30;20067;-78
2023/07/06 11:46:58;;;;;;;2.17;2.08;;;;;;;;;;4724150;30;20090;-81
2023/07/06 11:49:42;;;;;;;2.03;1.70;;;;;;;;;;4722810;30;20058;-84
2023/07/06 11:52:14;;;;;;;1.77;1.60;;;;;;;;;;4738528;30;20531;-81
2023/07/06 11:54:54;;;;;;;1.58;1.48;;;;;;;;;;4723375;30;20080;-79
2023/07/06 11:57:41;;;;;;;1.95;1.85;;;;;;;;;;4722984;30;20063;-82
2023/07/06 12:00:47;;;;;;;1.60;1.50;;;;;;;;;;4723476;30;20525;-81
2023/07/06 12:03:10;;;;;;;1.45;1.45;;;;;;;;;;4726870;30;20445;-82
2023/07/06 12:05:49;;;;;;;1.70;1.60;;;;;;;;;;4737846;30;20063;-81
2023/07/06 12:08:27;;;;;;;1.70;1.60;;;;;;;;;;4740739;30;20060;-80
2023/07/06 12:10:57;;;;;;;1.70;1.60;;;;;;;;;;4743872;30;20084;-79
2023/07/06 12:13:26;;;;;;;1.67;1.58;;;;;;;;;;4728691;30;20053;-82
2023/07/06 12:15:55;;;;;;;1.48;1.38;;;;;;;;;;4726979;30;20506;-81
2023/07/06 12:18:23;;;;;;;1.50;1.40;;;;;;;;;;4721872;30;20178;-81
2023/07/06 12:20:51;;;;;;;1.23;1.23;;;;;;;;;;4723011;30;20478;-81
2023/07/06 12:23:19;;;;;;;1.60;1.27;;;;;;;;;;4722164;30;20061;-81
2023/07/06 12:25:50;;;;;;;1.48;1.38;;;;;;;;;;4727210;30;20075;-81
2023/07/06 12:28:17;;;;;;;1.65;1.55;;;;;;;;;;4720987;30;20136;-80
2023/07/06 12:30:49;;;;;;;1.00;1.00;;;;;;;;;;4727201;30;20532;-81
2023/07/06 12:33:19;;;;;;;1.52;1.42;;;;;;;;;;4724205;30;20059;-81
2023/07/06 12:35:48;;;;;;;1.10;1.10;;;;;;;;;;4722506;30;20045;-81
2023/07/06 12:38:18;;;;;;;1.90;1.80;;;;;;;;;;4723425;30;20055;-81
2023/07/06 12:40:46;;;;;;;1.73;1.63;;;;;;;;;;4729579;30;20072;-81
2023/07/06 12:43:24;;;;;;;1.52;1.42;;;;;;;;;;4721162;30;20489;-80
2023/07/06 12:45:53;;;;;;;1.60;1.50;;;;;;;;;;4727144;30;20047;-82
2023/07/06 12:48:23;;;;;;;1.98;1.80;;;;;;;;;;4722450;30;20048;-80
2023/07/06 12:50:54;;;;;;;1.40;1.40;;;;;;;;;;4720900;30;20057;-80
2023/07/06 12:53:25;;;;;;;1.30;1.20;;;;;;;;;;4725121;30;20107;-81
2023/07/06 12:55:58;;;;;;;1.92;1.50;;;;;;;;;;4721814;30;20061;-82
2023/07/06 12:58:29;;;;;;;1.60;1.50;;;;;;;;;;4723245;30;20401;-84
2023/07/06 13:01:00;;;;;;;1.65;1.55;;;;;;;;;;4726213;30;20048;-80
2023/07/06 13:03:28;;;;;;;1.35;1.30;;;;;;;;;;4728169;30;20106;-80
2023/07/06 13:05:56;;;;;;;1.40;1.40;;;;;;;;;;4727085;30;20052;-81
2023/07/06 13:08:24;;;;;;;1.35;1.35;;;;;;;;;;4727099;30;20294;-81
2023/07/06 13:11:02;;;;;;;1.40;1.40;;;;;;;;;;4726727;30;20815;-82
2023/07/06 13:13:37;;;;;;;1.80;1.70;;;;;;;;;;4721420;30;20395;-81
2023/07/06 13:16:09;;;;;;;1.52;1.42;;;;;;;;;;4722887;30;20088;-81
2023/07/06 13:18:38;;;;;;;2.25;2.15;;;;;;;;;;4724564;30;20045;-83
2023/07/06 13:21:10;;;;;;;2.05;1.95;;;;;;;;;;4735522;30;20076;-83
2023/07/06 13:23:38;;;;;;;1.70;1.60;;;;;;;;;;4728479;30;20132;-85
2023/07/06 13:26:05;;;;;;;1.30;1.30;;;;;;;;;;4729194;30;20052;-82
2023/07/06 13:28:35;;;;;;;1.63;1.60;;;;;;;;;;4729181;30;20048;-84
2023/07/06 13:31:04;;;;;;;1.35;1.35;;;;;;;;;;4727770;30;20512;-82
2023/07/06 13:33:31;;;;;;;1.70;1.58;;;;;;;;;;4729981;30;20635;-85
2023/07/06 13:35:59;;;;;;;3.05;1.70;;;;;;;;;;4728893;30;20079;-84
2023/07/06 13:38:29;;;;;;;1.70;1.60;;;;;;;;;;4729049;30;20053;-83
2023/07/06 13:40:59;;;;;;;1.70;1.60;;;;;;;;;;4729047;30;20737;-82
2023/07/06 13:43:27;;;;;;;1.50;1.40;;;;;;;;;;4725181;30;20208;-83
2023/07/06 13:45:56;;;;;;;1.40;1.30;;;;;;;;;;4729810;30;20048;-81
2023/07/06 13:48:24;;;;;;;1.38;1.35;;;;;;;;;;4725066;30;20061;-83
2023/07/06 13:50:51;;;;;;;1.40;1.40;;;;;;;;;;4726991;30;20048;-82
2023/07/06 13:53:20;;;;;;;1.38;1.30;;;;;;;;;;4727667;30;20059;-82
2023/07/06 13:55:52;;;;;;;2.35;1.60;;;;;;;;;;4726242;30;20187;-81
2023/07/06 13:58:21;;;;;;;1.30;1.30;;;;;;;;;;4730830;30;20055;-82
2023/07/06 14:00:49;;;;;;;1.33;1.33;;;;;;;;;;4729383;30;20106;-83
2023/07/06 14:03:23;;;;;;;1.63;1.58;;;;;;;;;;4730810;30;20052;-82
2023/07/06 14:05:55;;;;;;;1.50;1.42;;;;;;;;;;4732891;30;20057;-84
2023/07/06 14:08:30;;;;;;;1.67;1.58;;;;;;;;;;4723452;30;20092;-85
2023/07/06 14:11:00;;;;;;;1.80;1.70;;;;;;;;;;4732105;30;20056;-83
2023/07/06 14:13:29;;;;;;;1.35;1.35;;;;;;;;;;4724942;30;20187;-82
2023/07/06 14:15:57;;;;;;;1.40;1.40;;;;;;;;;;4726781;30;20048;-81
2023/07/06 14:18:26;;;;;;;1.40;1.40;;;;;;;;;;4727401;30;20045;-82
2023/07/06 14:20:57;;;;;;;2.05;1.48;;;;;;;;;;4731074;30;20053;-84
2023/07/06 14:23:26;;;;;;;1.60;1.50;;;;;;;;;;4728765;30;20615;-84
2023/07/06 14:25:54;;;;;;;1.40;1.40;;;;;;;;;;4731359;30;20059;-85
2023/07/06 14:28:26;;;;;;;1.30;1.30;;;;;;;;;;4724819;30;20095;-83
2023/07/06 14:30:56;;;;;;;1.80;1.70;;;;;;;;;;4728909;30;20103;-83
2023/07/06 14:33:26;;;;;;;2.15;1.60;;;;;;;;;;4725344;30;20154;-85
2023/07/06 14:35:54;;;;;;;1.50;1.50;;;;;;;;;;4724241;30;20053;-83
2023/07/06 14:38:23;;;;;;;2.92;1.40;;;;;;;;;;4723683;30;20056;-83
2023/07/06 14:40:50;;;;;;;1.70;1.48;;;;;;;;;;4728136;30;20060;-84
2023/07/06 14:43:23;;;;;;;1.70;1.60;;;;;;;;;;4727533;30;20474;-85
2023/07/06 14:45:51;;;;;;;1.42;1.40;;;;;;;;;;4717081;30;20526;-82
2023/07/06 14:48:18;;;;;;;1.75;1.65;;;;;;;;;;4729031;30;20060;-81
2023/07/06 14:50:45;;;;;;;1.40;1.40;;;;;;;;;;4725422;30;20064;-81
2023/07/06 14:53:13;;;;;;;1.58;1.48;;;;;;;;;;4725842;30;20132;-82
2023/07/06 14:55:44;;;;;;;1.40;1.40;;;;;;;;;;4729949;30;20049;-82
2023/07/06 14:58:12;;;;;;;1.70;1.60;;;;;;;;;;4730075;30;20055;-83
2023/07/06 15:00:39;;;;;;;1.80;1.70;;;;;;;;;;4729837;30;20072;-82
2023/07/06 15:03:06;;;;;;;2.55;1.65;;;;;;;;;;4725469;30;20130;-83
2023/07/06 15:05:34;;;;;;;1.83;1.73;;;;;;;;;;4731299;30;20475;-86
2023/07/06 15:08:02;;;;;;;1.30;1.30;;;;;;;;;;4731989;30;20063;-82